createdAt,value
2023-03-19T00:04:46.601Z,11.53
2023-03-19T00:09:48.432Z,10.53
2023-03-19T00:14:50.483Z,10.00
2023-03-19T00:19:53.575Z,9.80
2023-03-19T00:24:55.250Z,10.27
2023-03-19T00:29:56.952Z,10.13
2023-03-19T00:35:00.235Z,9.27
2023-03-19T00:40:02.008Z,8.73
2023-03-19T00:45:04.665Z,9.17
2023-03-19T00:50:11.932Z,9.37
2023-03-19T00:55:13.774Z,10.07
2023-03-19T01:05:19.516Z,10.90
2023-03-19T01:10:22.148Z,10.57
2023-03-19T01:15:24.367Z,10.87
2023-03-19T01:20:27.424Z,10.97
2023-03-19T01:25:29.112Z,10.73
2023-03-19T01:30:37.785Z,10.83
2023-03-19T01:35:55.435Z,12.30
2023-03-19T01:41:01.089Z,11.40
2023-03-19T01:46:04.898Z,11.43
2023-03-19T01:51:29.728Z,11.03
2023-03-19T01:56:51.569Z,12.20
2023-03-19T02:02:03.705Z,12.53
2023-03-19T02:07:07.605Z,11.80
2023-03-19T02:12:09.983Z,11.03
2023-03-19T02:17:11.737Z,11.97
2023-03-19T02:22:14.817Z,11.50
2023-03-19T02:27:18.518Z,11.77
2023-03-19T02:32:23.217Z,10.70
2023-03-19T02:37:26.545Z,7.90
2023-03-19T02:42:30.544Z,8.10
2023-03-19T02:47:32.236Z,7.70
2023-03-19T02:52:33.987Z,9.37
2023-03-19T02:57:37.008Z,8.77
2023-03-19T03:02:38.775Z,8.50
2023-03-19T03:07:41.375Z,8.80
2023-03-19T03:12:46.419Z,10.57
2023-03-19T03:17:48.124Z,10.87
2023-03-19T03:22:49.897Z,9.27
2023-03-19T03:27:53.293Z,6.67
2023-03-19T03:32:55.001Z,5.60
2023-03-19T03:37:57.905Z,7.90
2023-03-19T03:43:01.326Z,8.03
2023-03-19T03:48:04.502Z,7.77
2023-03-19T03:53:06.263Z,10.70
2023-03-19T03:58:09.393Z,10.40
2023-03-19T04:03:11.151Z,7.57
2023-03-19T04:08:13.227Z,7.43
2023-03-19T04:13:16.809Z,11.13
2023-03-19T04:18:18.825Z,11.80
2023-03-19T04:23:20.617Z,10.90
2023-03-19T04:28:24.468Z,17.70
2023-03-19T04:33:26.270Z,11.10
2023-03-19T04:38:28.529Z,6.80
2023-03-19T04:43:31.685Z,7.23
2023-03-19T04:48:35.687Z,6.13
2023-03-19T04:53:37.899Z,6.30
2023-03-19T04:58:41.196Z,15.10
2023-03-19T05:03:43.431Z,16.93
2023-03-19T05:08:45.810Z,16.30
2023-03-19T05:13:50.287Z,11.80
2023-03-19T05:18:52.556Z,9.33
2023-03-19T05:23:54.726Z,8.90
2023-03-19T05:28:58.337Z,9.00
2023-03-19T05:34:09.489Z,10.10
2023-03-19T05:39:11.915Z,9.20
2023-03-19T05:44:18.097Z,9.13
2023-03-19T05:49:31.368Z,8.60
2023-03-19T05:54:33.292Z,8.90
2023-03-19T05:59:43.216Z,11.80
2023-03-19T06:05:06.454Z,13.07
2023-03-19T06:10:09.413Z,10.90
2023-03-19T06:15:13.301Z,9.50
2023-03-19T06:20:39.492Z,9.20
2023-03-19T06:25:41.598Z,9.80
2023-03-19T06:30:44.801Z,9.70
2023-03-19T06:36:09.549Z,7.87
2023-03-19T06:41:11.649Z,9.53
2023-03-19T06:46:15.051Z,10.93
2023-03-19T06:51:16.770Z,9.60
2023-03-19T06:56:18.473Z,9.50
2023-03-19T07:01:22.020Z,9.50
2023-03-19T07:06:23.790Z,12.17
2023-03-19T07:11:25.543Z,11.10
2023-03-19T07:16:28.705Z,9.40
2023-03-19T07:21:30.392Z,8.70
2023-03-19T07:26:32.585Z,7.67
2023-03-19T07:31:35.846Z,7.43
2023-03-19T07:36:37.571Z,7.27
2023-03-19T07:41:39.319Z,7.03
2023-03-19T07:46:42.522Z,6.93
2023-03-19T07:51:44.291Z,5.70
2023-03-19T07:56:46.096Z,5.20
2023-03-19T08:01:49.179Z,6.00
2023-03-19T08:06:51.372Z,6.60
2023-03-19T08:11:53.149Z,5.00
2023-03-19T08:16:56.340Z,5.90
2023-03-19T08:21:58.057Z,9.00
2023-03-19T08:26:59.744Z,5.47
2023-03-19T08:32:03.267Z,6.10
2023-03-19T08:37:04.995Z,7.33
2023-03-19T08:42:06.906Z,5.67
2023-03-19T08:47:09.972Z,5.73
2023-03-19T08:52:11.794Z,5.53
2023-03-19T08:57:13.430Z,6.00
2023-03-19T09:02:16.431Z,5.90
2023-03-19T09:07:18.162Z,7.13
2023-03-19T09:12:19.856Z,5.50
2023-03-19T09:17:22.871Z,5.50
2023-03-19T09:22:24.543Z,7.50
2023-03-19T09:27:26.272Z,6.60
2023-03-19T09:32:29.743Z,5.00
2023-03-19T09:37:31.388Z,4.90
2023-03-19T09:42:45.162Z,6.00
2023-03-19T09:47:49.835Z,5.40
2023-03-19T09:52:54.378Z,7.37
2023-03-19T09:57:57.114Z,9.30
2023-03-19T10:03:03.889Z,8.77
2023-03-19T10:08:14.102Z,4.47
2023-03-19T10:13:21.863Z,2.77
2023-03-19T10:18:26.156Z,2.45
2023-03-19T10:23:37.732Z,2.35
2023-03-19T10:28:40.484Z,1.73
2023-03-19T10:33:46.474Z,1.88
2023-03-19T10:38:48.145Z,1.58
2023-03-19T10:43:52.813Z,1.15
2023-03-19T10:48:56.935Z,1.20
2023-03-19T10:54:00.098Z,1.10
2023-03-19T10:59:02.998Z,1.70
2023-03-19T11:04:14.547Z,0.70
2023-03-19T11:09:20.165Z,1.00
2023-03-19T11:14:24.472Z,0.90
2023-03-19T11:19:29.511Z,1.20
2023-03-19T11:24:34.445Z,2.00
2023-03-19T11:29:36.854Z,2.30
2023-03-19T11:34:43.851Z,1.80
2023-03-19T11:39:49.414Z,1.30
2023-03-19T11:44:55.995Z,1.53
2023-03-19T11:50:09.691Z,1.97
2023-03-19T11:55:17.311Z,2.63
2023-03-19T12:00:25.567Z,3.00
2023-03-19T12:05:31.754Z,1.40
2023-03-19T12:10:42.408Z,2.00
2023-03-19T12:15:47.195Z,1.50
2023-03-19T12:20:56.318Z,1.60
2023-03-19T12:26:04.517Z,1.80
2023-03-19T12:31:18.391Z,2.43
2023-03-19T12:36:23.523Z,2.00
2023-03-19T12:41:27.256Z,1.97
2023-03-19T12:46:31.961Z,2.80
2023-03-19T12:51:35.946Z,2.10
2023-03-19T12:56:39.392Z,1.93
2023-03-19T13:01:42.502Z,2.30
2023-03-19T13:06:48.709Z,2.30
2023-03-19T13:11:52.906Z,2.37
2023-03-19T13:16:57.693Z,2.40
2023-03-19T13:22:02.131Z,2.80
2023-03-19T13:27:04.035Z,2.90
2023-03-19T13:32:06.677Z,2.87
2023-03-19T13:37:12.472Z,3.23
2023-03-19T13:42:37.015Z,2.83
2023-03-19T13:47:43.349Z,2.77
2023-03-19T13:52:50.538Z,2.30
2023-03-19T13:58:01.748Z,3.00
2023-03-19T14:03:03.475Z,2.60
2023-03-19T14:08:14.884Z,3.07
2023-03-19T14:13:20.057Z,3.10
2023-03-19T14:18:22.148Z,1.83
2023-03-19T14:23:38.549Z,1.63
2023-03-19T14:28:49.650Z,1.90
2023-03-19T14:33:55.124Z,2.20
2023-03-19T14:38:59.145Z,1.80
2023-03-19T14:44:30.769Z,1.83
2023-03-19T14:49:52.058Z,2.03
2023-03-19T14:54:55.993Z,3.40
2023-03-19T14:59:57.743Z,7.30
2023-03-19T15:05:00.706Z,4.13
2023-03-19T15:10:06.638Z,2.20
2023-03-19T15:15:17.592Z,1.70
2023-03-19T15:20:20.474Z,1.70
2023-03-19T15:25:23.804Z,2.03
2023-03-19T15:30:28.865Z,2.30
2023-03-19T15:35:32.552Z,2.50
2023-03-19T15:40:36.931Z,4.87
2023-03-19T15:45:38.880Z,3.20
2023-03-19T15:50:41.585Z,3.33
2023-03-19T15:55:44.850Z,2.23
2023-03-19T16:00:47.273Z,2.10
2023-03-19T16:05:51.480Z,2.47
2023-03-19T16:10:55.201Z,11.10
2023-03-19T16:16:00.810Z,3.37
2023-03-19T16:21:06.472Z,3.80
2023-03-19T16:26:21.666Z,3.20
2023-03-19T16:31:24.794Z,3.73
2023-03-19T16:36:28.128Z,6.60
2023-03-19T16:41:34.174Z,4.30
2023-03-19T16:46:35.954Z,3.30
2023-03-19T16:51:38.223Z,3.67
2023-03-19T16:56:41.309Z,3.70
2023-03-19T17:01:43.076Z,4.73
2023-03-19T17:06:44.902Z,4.67
2023-03-19T17:11:48.005Z,5.70
2023-03-19T17:16:54.419Z,4.10
2023-03-19T17:21:57.430Z,4.63
2023-03-19T17:27:01.612Z,4.50
2023-03-19T17:32:04.152Z,4.13
2023-03-19T17:37:06.986Z,3.67
2023-03-19T17:42:16.559Z,4.70
2023-03-19T17:47:18.370Z,4.60
2023-03-19T17:52:21.119Z,4.90
2023-03-19T17:57:25.865Z,5.73
2023-03-19T18:02:28.524Z,5.03
2023-03-19T18:07:31.091Z,5.10
2023-03-19T18:12:34.114Z,4.50
2023-03-19T18:17:35.905Z,5.00
2023-03-19T18:22:37.644Z,5.43
2023-03-19T18:27:40.733Z,6.47
2023-03-19T18:32:45.574Z,5.93
2023-03-19T18:37:49.219Z,7.33
2023-03-19T18:42:52.235Z,5.77
2023-03-19T18:47:54.944Z,6.33
2023-03-19T18:52:57.090Z,6.00
2023-03-19T18:58:01.013Z,4.90
2023-03-19T19:03:03.766Z,6.70
2023-03-19T19:08:07.637Z,5.87
2023-03-19T19:13:13.365Z,6.03
2023-03-19T19:18:17.846Z,6.30
2023-03-19T19:23:20.301Z,6.07
2023-03-19T19:28:26.785Z,11.60
2023-03-19T19:33:31.613Z,7.57
2023-03-19T19:38:33.258Z,7.47
2023-03-19T19:43:36.299Z,9.77
2023-03-19T19:48:39.022Z,7.17
2023-03-19T19:53:41.135Z,6.00
2023-03-19T19:58:44.971Z,6.70
2023-03-19T20:03:47.330Z,7.10
2023-03-19T20:08:49.350Z,6.67
2023-03-19T20:13:54.490Z,6.27
2023-03-19T20:18:56.784Z,7.47
2023-03-19T20:23:59.572Z,7.17
2023-03-19T20:29:03.739Z,7.70
2023-03-19T20:34:05.585Z,9.83
2023-03-19T20:39:07.247Z,7.47
2023-03-19T20:44:11.456Z,8.70
2023-03-19T20:49:13.320Z,7.20
2023-03-19T20:54:15.015Z,7.33
2023-03-19T20:59:18.093Z,7.13
2023-03-19T21:04:20.886Z,9.17
2023-03-19T21:09:23.069Z,11.00
2023-03-19T21:14:27.315Z,8.47
2023-03-19T21:19:29.045Z,7.97
2023-03-19T21:24:31.169Z,8.47
2023-03-19T21:29:34.217Z,7.93
2023-03-19T21:34:36.069Z,8.37
2023-03-19T21:39:38.233Z,8.30
2023-03-19T21:44:41.341Z,8.97
2023-03-19T21:49:43.505Z,8.80
2023-03-19T21:54:45.188Z,12.47
2023-03-19T21:59:48.518Z,8.90
2023-03-19T22:04:50.177Z,8.67
2023-03-19T22:09:51.912Z,8.20
2023-03-19T22:14:54.989Z,8.60
2023-03-19T22:19:58.049Z,9.17
2023-03-19T22:25:00.328Z,8.80
2023-03-19T22:30:03.850Z,11.83
2023-03-19T22:35:06.226Z,9.90
2023-03-19T22:40:10.524Z,8.60
2023-03-19T22:45:20.859Z,9.20
2023-03-19T22:50:24.660Z,10.07
2023-03-19T22:55:26.322Z,10.37
2023-03-19T23:00:29.336Z,9.57
2023-03-19T23:05:33.192Z,9.63
2023-03-19T23:10:35.945Z,10.50
2023-03-19T23:15:40.284Z,9.93
2023-03-19T23:20:42.715Z,10.60
2023-03-19T23:25:44.708Z,11.90
2023-03-19T23:30:48.015Z,20.03
2023-03-19T23:35:49.775Z,13.67
2023-03-19T23:40:51.745Z,13.97
2023-03-19T23:45:55.216Z,13.90
2023-03-19T23:50:57.004Z,16.00
2023-03-19T23:55:59.540Z,14.30
